Prescott, Arizona
Current Conditions -  °F | °C
As of 5:53 AM on Saturday 20 Dec 2014 (Local Time) from KPRC Reporting Station
Clear Clear  
Wind Chill: 22°   Ceiling: Unl
Heat Index: 29°   Visibility: 10mi
Dew Point: 24°   Wind: 7mph
Humidity: 82%   Direction: 190°S
Pressure: 30.14"   Gusts: NA
Location:  34.54°N, 112.47°W
Report Text: KPRC 201253Z 19006KT 10SM CLR M02/M04 A3014 RMK AO2 SLP197 T10171044
Loading
Personal Weather Stations






























Interactive Weather Map New forecast layout! Learn more

10-Day Weather Forecast

Advertisements
Track Severe Weather on mobile